createdAt,value
2022-11-21T00:01:22.643Z,-4.60
2022-11-21T00:03:10.951Z,-4.60
2022-11-21T00:04:59.068Z,-4.70
2022-11-21T00:06:50.483Z,-4.70
2022-11-21T00:08:37.823Z,-4.70
2022-11-21T00:10:26.381Z,-4.70
2022-11-21T00:12:16.125Z,-4.70
2022-11-21T00:14:03.377Z,-4.70
2022-11-21T00:15:50.639Z,-4.70
2022-11-21T00:17:37.798Z,-4.70
2022-11-21T00:19:24.754Z,-4.70
2022-11-21T00:21:18.109Z,-4.70
2022-11-21T00:23:05.321Z,-4.70
2022-11-21T00:24:54.336Z,-4.70
2022-11-21T00:26:41.981Z,-4.70
2022-11-21T00:28:29.048Z,-4.80
2022-11-21T00:30:16.045Z,-4.80
2022-11-21T00:32:03.427Z,-4.90
2022-11-21T00:33:50.578Z,-4.90
2022-11-21T00:35:38.424Z,-4.90
2022-11-21T00:37:25.934Z,-5.00
2022-11-21T00:39:13.018Z,-5.00
2022-11-21T00:40:59.975Z,-5.00
2022-11-21T00:42:47.483Z,-5.10
2022-11-21T00:44:34.679Z,-5.00
2022-11-21T00:46:21.801Z,-5.00
2022-11-21T00:48:09.005Z,-5.00
2022-11-21T00:49:56.367Z,-5.00
2022-11-21T00:51:43.429Z,-5.00
2022-11-21T00:53:31.138Z,-5.10
2022-11-21T00:55:18.147Z,-5.00
2022-11-21T00:57:05.237Z,-5.10
2022-11-21T00:58:52.490Z,-5.10
2022-11-21T01:00:39.614Z,-5.00
2022-11-21T01:02:26.951Z,-5.10
2022-11-21T01:04:14.644Z,-5.10
2022-11-21T01:06:10.298Z,-5.10
2022-11-21T01:07:57.609Z,-5.10
2022-11-21T01:09:45.535Z,-5.10
2022-11-21T01:11:33.369Z,-5.10
2022-11-21T01:13:20.782Z,-5.10
2022-11-21T01:15:11.438Z,-5.10
2022-11-21T01:16:58.801Z,-5.10
2022-11-21T01:18:48.021Z,-5.20
2022-11-21T01:20:40.144Z,-5.20
2022-11-21T01:22:27.202Z,-5.20
2022-11-21T01:24:14.252Z,-5.20
2022-11-21T01:26:06.051Z,-5.10
2022-11-21T01:27:53.166Z,-5.10
2022-11-21T01:29:40.209Z,-5.10
2022-11-21T01:31:29.742Z,-5.20
2022-11-21T01:33:17.611Z,-5.20
2022-11-21T01:35:05.232Z,-5.20
2022-11-21T01:36:52.546Z,-5.30
2022-11-21T01:38:41.080Z,-5.30
2022-11-21T01:40:28.101Z,-5.30
2022-11-21T01:42:15.344Z,-5.30
2022-11-21T01:44:21.025Z,-5.30
2022-11-21T01:46:07.974Z,-5.30
2022-11-21T01:47:55.672Z,-5.30
2022-11-21T01:49:43.297Z,-5.30
2022-11-21T01:51:57.405Z,-5.40
2022-11-21T01:53:50.643Z,-5.40
2022-11-21T01:55:37.871Z,-5.40
2022-11-21T01:57:33.026Z,-5.40
2022-11-21T01:59:29.650Z,-5.50
2022-11-21T02:01:17.163Z,-5.50
2022-11-21T02:03:10.475Z,-5.50
2022-11-21T02:04:59.720Z,-5.50
2022-11-21T02:06:47.408Z,-5.40
2022-11-21T02:08:34.595Z,-5.50
2022-11-21T02:10:23.055Z,-5.50
2022-11-21T02:12:18.203Z,-5.60
2022-11-21T02:14:05.452Z,-5.60
2022-11-21T02:15:52.819Z,-5.70
2022-11-21T02:17:39.925Z,-5.70
2022-11-21T02:19:41.338Z,-5.80
2022-11-21T02:21:49.333Z,-5.80
2022-11-21T02:23:59.048Z,-5.90
2022-11-21T02:25:47.409Z,-6.00
2022-11-21T02:27:35.033Z,-6.00
2022-11-21T02:29:22.265Z,-6.10
2022-11-21T02:31:09.559Z,-6.10
2022-11-21T02:32:56.920Z,-6.10
2022-11-21T02:34:44.308Z,-6.20
2022-11-21T02:36:48.697Z,-6.20
2022-11-21T02:38:38.573Z,-6.20
2022-11-21T02:40:29.338Z,-6.20
2022-11-21T02:42:46.804Z,-6.30
2022-11-21T02:44:49.171Z,-6.30
2022-11-21T02:46:36.537Z,-6.30
2022-11-21T02:48:23.526Z,-6.30
2022-11-21T02:50:20.168Z,-6.20
2022-11-21T02:52:07.333Z,-6.30
2022-11-21T02:53:54.377Z,-6.30
2022-11-21T02:55:42.378Z,-6.30
2022-11-21T02:57:29.382Z,-6.30
2022-11-21T02:59:16.477Z,-6.30
2022-11-21T03:01:03.742Z,-6.40
2022-11-21T03:02:53.900Z,-6.40
2022-11-21T03:04:41.087Z,-6.40
2022-11-21T03:06:28.440Z,-6.40
2022-11-21T03:08:15.490Z,-6.30
2022-11-21T03:10:02.867Z,-6.30
2022-11-21T03:11:50.195Z,-6.30
2022-11-21T03:13:37.273Z,-6.20
2022-11-21T03:15:24.359Z,-6.20
2022-11-21T03:17:11.650Z,-6.10
2022-11-21T03:18:59.717Z,-6.10
2022-11-21T03:20:46.694Z,-6.10
2022-11-21T03:22:34.209Z,-6.10
2022-11-21T03:24:21.393Z,-6.10
2022-11-21T03:26:08.414Z,-6.10
2022-11-21T03:27:55.821Z,-6.10
2022-11-21T03:29:44.005Z,-6.10
2022-11-21T03:31:31.075Z,-6.20
2022-11-21T03:33:19.009Z,-6.20
2022-11-21T03:35:06.509Z,-6.30
2022-11-21T03:36:53.877Z,-6.40
2022-11-21T03:38:41.490Z,-6.40
2022-11-21T03:40:28.879Z,-6.40
2022-11-21T03:42:15.961Z,-6.40
2022-11-21T03:44:07.119Z,-6.40
2022-11-21T03:45:54.280Z,-6.40
2022-11-21T03:47:42.117Z,-6.40
2022-11-21T03:49:29.580Z,-6.40
2022-11-21T03:51:16.681Z,-6.40
2022-11-21T03:53:03.684Z,-6.40
2022-11-21T03:54:50.909Z,-6.40
2022-11-21T03:56:39.965Z,-6.40
2022-11-21T03:58:27.014Z,-6.40
2022-11-21T04:00:15.225Z,-6.40
2022-11-21T04:02:02.808Z,-6.40
2022-11-21T04:03:51.259Z,-6.40
2022-11-21T04:05:42.621Z,-6.30
2022-11-21T04:07:35.993Z,-6.30
2022-11-21T04:09:23.556Z,-6.30
2022-11-21T04:11:11.150Z,-6.20
2022-11-21T04:12:58.147Z,-6.10
2022-11-21T04:14:45.181Z,-6.00
2022-11-21T04:16:32.429Z,-6.00
2022-11-21T04:18:19.517Z,-6.00
2022-11-21T04:20:06.826Z,-6.00
2022-11-21T04:21:54.131Z,-6.10
2022-11-21T04:23:41.783Z,-6.10
2022-11-21T04:25:28.923Z,-6.10
2022-11-21T04:27:16.194Z,-6.20
2022-11-21T04:29:03.338Z,-6.20
2022-11-21T04:30:54.552Z,-6.20
2022-11-21T04:32:44.204Z,-6.30
2022-11-21T04:34:31.263Z,-6.30
2022-11-21T04:36:18.538Z,-6.30
2022-11-21T04:38:06.438Z,-6.30
2022-11-21T04:39:53.465Z,-6.30
2022-11-21T04:41:40.482Z,-6.40
2022-11-21T04:43:27.847Z,-6.40
2022-11-21T04:45:16.621Z,-6.40
2022-11-21T04:47:05.285Z,-6.30
2022-11-21T04:48:52.755Z,-6.30
2022-11-21T04:50:40.205Z,-6.20
2022-11-21T04:52:27.500Z,-6.20
2022-11-21T04:54:15.071Z,-6.10
2022-11-21T04:56:06.178Z,-6.10
2022-11-21T04:57:53.540Z,-6.10
2022-11-21T04:59:41.438Z,-6.00
2022-11-21T05:01:29.220Z,-5.90
2022-11-21T05:03:16.768Z,-5.90
2022-11-21T05:05:04.322Z,-5.80
2022-11-21T05:06:51.381Z,-5.80
2022-11-21T05:08:38.404Z,-5.70
2022-11-21T05:10:25.786Z,-5.70
2022-11-21T05:12:31.562Z,-5.70
2022-11-21T05:14:18.603Z,-5.70
2022-11-21T05:16:06.007Z,-5.70
2022-11-21T05:17:53.098Z,-5.70
2022-11-21T05:19:40.227Z,-5.70
2022-11-21T05:21:27.467Z,-5.70
2022-11-21T05:23:15.859Z,-5.70
2022-11-21T05:25:04.267Z,-5.70
2022-11-21T05:26:51.464Z,-5.70
2022-11-21T05:28:38.947Z,-5.60
2022-11-21T05:30:26.219Z,-5.60
2022-11-21T05:32:13.536Z,-5.50
2022-11-21T05:34:00.543Z,-5.50
2022-11-21T05:35:47.707Z,-5.50
2022-11-21T05:37:35.246Z,-5.50
2022-11-21T05:39:22.929Z,-5.50
2022-11-21T05:41:10.125Z,-5.50
2022-11-21T05:43:16.097Z,-5.40
2022-11-21T05:45:03.962Z,-5.40
2022-11-21T05:46:51.717Z,-5.30
2022-11-21T05:48:39.589Z,-5.30
2022-11-21T05:50:27.382Z,-5.20
2022-11-21T05:52:14.608Z,-5.10
2022-11-21T05:54:02.118Z,-5.00
2022-11-21T05:55:49.331Z,-5.00
2022-11-21T05:57:36.410Z,-4.90
2022-11-21T05:59:23.731Z,-4.80
2022-11-21T06:01:12.593Z,-4.70
2022-11-21T06:03:18.245Z,-4.60
2022-11-21T06:05:06.049Z,-4.60
2022-11-21T06:06:53.381Z,-4.50
2022-11-21T06:08:43.070Z,-4.40
2022-11-21T06:10:30.549Z,-4.40
2022-11-21T06:12:20.329Z,-4.40
2022-11-21T06:14:11.761Z,-4.40
2022-11-21T06:16:01.878Z,-4.30
2022-11-21T06:17:49.080Z,-4.30
2022-11-21T06:19:36.039Z,-4.30
2022-11-21T06:21:25.645Z,-4.20
2022-11-21T06:23:13.398Z,-4.20
2022-11-21T06:25:00.361Z,-4.10
2022-11-21T06:26:47.836Z,-4.10
2022-11-21T06:28:38.848Z,-4.00
2022-11-21T06:30:25.987Z,-4.00
2022-11-21T06:32:13.610Z,-3.90
2022-11-21T06:34:00.969Z,-3.80
2022-11-21T06:35:48.155Z,-3.80
2022-11-21T06:37:35.576Z,-3.70
2022-11-21T06:39:22.991Z,-3.70
2022-11-21T06:41:22.088Z,-3.50
2022-11-21T06:43:09.428Z,-3.40
2022-11-21T06:44:56.649Z,-3.40
2022-11-21T06:46:49.689Z,-3.30
2022-11-21T06:48:38.860Z,-3.30
2022-11-21T06:50:26.024Z,-3.30
2022-11-21T06:52:13.096Z,-3.20
2022-11-21T06:54:01.119Z,-3.20
2022-11-21T06:55:51.114Z,-3.10
2022-11-21T06:57:42.442Z,-3.10
2022-11-21T06:59:30.994Z,-3.00
2022-11-21T07:01:18.747Z,-2.90
2022-11-21T07:03:05.839Z,-2.80
2022-11-21T07:04:53.917Z,-2.70
2022-11-21T07:06:41.186Z,-2.50
2022-11-21T07:08:30.124Z,-2.40
2022-11-21T07:10:17.595Z,-2.30
2022-11-21T07:12:38.161Z,-2.20
2022-11-21T07:14:25.208Z,-2.10
2022-11-21T07:16:15.000Z,-2.00
2022-11-21T07:18:02.352Z,-1.90
2022-11-21T07:19:49.504Z,-1.80
2022-11-21T07:21:36.800Z,-1.70
2022-11-21T07:23:24.234Z,-1.60
2022-11-21T07:25:11.310Z,-1.40
2022-11-21T07:26:58.924Z,-1.30
2022-11-21T07:28:46.153Z,-1.20
2022-11-21T07:30:33.387Z,-1.10
2022-11-21T07:32:20.761Z,-1.00
2022-11-21T07:34:08.072Z,-0.90
2022-11-21T07:35:58.666Z,-0.80
2022-11-21T07:37:45.959Z,-0.70
2022-11-21T07:39:33.034Z,-0.60
2022-11-21T07:41:20.110Z,-0.60
2022-11-21T07:43:10.816Z,-0.50
2022-11-21T07:44:58.450Z,-0.40
2022-11-21T07:46:45.448Z,-0.30
2022-11-21T07:48:32.846Z,-0.30
2022-11-21T07:50:20.226Z,-0.20
2022-11-21T07:52:07.426Z,-0.20
2022-11-21T07:53:54.995Z,-0.20
2022-11-21T07:55:42.707Z,-0.10
2022-11-21T07:57:30.980Z,-0.10
2022-11-21T07:59:19.348Z,-0.10
2022-11-21T08:01:07.575Z,0.00
2022-11-21T08:02:54.752Z,0.00
2022-11-21T08:04:42.160Z,0.00
2022-11-21T08:06:29.465Z,0.00
2022-11-21T08:08:16.596Z,0.00
2022-11-21T08:10:04.475Z,0.00
2022-11-21T08:11:51.690Z,0.00
2022-11-21T08:13:38.785Z,0.00
2022-11-21T08:15:26.181Z,0.00
2022-11-21T08:17:14.145Z,0.10
2022-11-21T08:19:01.567Z,0.20
2022-11-21T08:20:49.048Z,0.20
2022-11-21T08:22:40.785Z,0.30
2022-11-21T08:24:27.878Z,0.40
2022-11-21T08:26:15.238Z,0.50
2022-11-21T08:28:03.053Z,0.50
2022-11-21T08:29:50.718Z,0.50
2022-11-21T08:31:41.407Z,0.50
2022-11-21T08:33:28.919Z,0.50
2022-11-21T08:35:16.944Z,0.50
2022-11-21T08:37:04.360Z,0.60
2022-11-21T08:38:51.562Z,0.60
2022-11-21T08:40:40.071Z,0.60
2022-11-21T08:42:27.748Z,0.60
2022-11-21T08:44:14.915Z,0.60
2022-11-21T08:46:02.161Z,0.60
2022-11-21T08:47:49.635Z,0.60
2022-11-21T08:49:36.853Z,0.60
2022-11-21T08:51:23.863Z,0.60
2022-11-21T08:53:11.308Z,0.60
2022-11-21T08:54:58.485Z,0.60
2022-11-21T08:56:45.781Z,0.60
2022-11-21T08:58:33.269Z,0.70
2022-11-21T09:00:20.594Z,0.70
2022-11-21T09:02:10.722Z,0.80
2022-11-21T09:03:58.184Z,0.90
2022-11-21T09:05:45.765Z,0.90
2022-11-21T09:07:33.020Z,1.10
2022-11-21T09:09:25.108Z,1.20
2022-11-21T09:11:12.791Z,1.20
2022-11-21T09:13:00.454Z,1.10
2022-11-21T09:15:06.697Z,1.10
2022-11-21T09:17:12.531Z,1.10
2022-11-21T09:18:59.654Z,1.00
2022-11-21T09:20:47.066Z,1.00
2022-11-21T09:22:34.324Z,1.00
2022-11-21T09:24:21.501Z,1.00
2022-11-21T09:26:09.189Z,1.00
2022-11-21T09:28:00.600Z,1.00
2022-11-21T09:29:53.661Z,0.90
2022-11-21T09:31:42.439Z,1.00
2022-11-21T09:33:31.196Z,1.00
2022-11-21T09:35:18.546Z,1.00
2022-11-21T09:37:06.111Z,1.00
2022-11-21T09:38:53.388Z,1.00
2022-11-21T09:40:46.062Z,1.00
2022-11-21T09:42:52.230Z,1.00
2022-11-21T09:45:17.702Z,1.10
2022-11-21T09:47:19.340Z,1.10
2022-11-21T09:49:09.805Z,1.20
2022-11-21T09:51:04.041Z,1.20
2022-11-21T09:53:06.421Z,1.20
2022-11-21T09:54:59.060Z,1.20
2022-11-21T09:56:48.029Z,1.20
2022-11-21T09:58:43.246Z,1.20
2022-11-21T10:00:31.545Z,1.20
2022-11-21T10:02:21.581Z,1.30
2022-11-21T10:04:08.878Z,1.20
2022-11-21T10:06:19.792Z,1.30
2022-11-21T10:08:28.209Z,1.30
2022-11-21T10:10:30.880Z,1.30
2022-11-21T10:12:44.931Z,1.40
2022-11-21T10:15:06.941Z,1.50
2022-11-21T10:17:12.153Z,1.50
2022-11-21T10:19:44.581Z,1.50
2022-11-21T10:21:43.105Z,1.60
2022-11-21T10:24:12.513Z,1.60
2022-11-21T10:26:33.521Z,1.60
2022-11-21T10:28:43.311Z,1.90
2022-11-21T10:30:30.543Z,2.00
2022-11-21T10:32:26.007Z,2.00
2022-11-21T10:34:20.759Z,2.00
2022-11-21T10:36:13.280Z,2.00
2022-11-21T10:38:02.837Z,2.00
2022-11-21T10:39:51.504Z,2.00
2022-11-21T10:41:47.918Z,2.00
2022-11-21T10:44:01.774Z,2.10
2022-11-21T10:45:50.265Z,2.10
2022-11-21T10:47:40.001Z,2.20
2022-11-21T10:49:30.445Z,2.20
2022-11-21T10:51:17.804Z,2.30
2022-11-21T10:53:27.649Z,2.30
2022-11-21T10:55:15.299Z,2.30
2022-11-21T10:57:16.578Z,2.30
2022-11-21T10:59:22.571Z,2.30
2022-11-21T11:01:30.997Z,2.30
2022-11-21T11:03:18.696Z,2.40
2022-11-21T11:05:22.257Z,2.40
2022-11-21T11:07:29.272Z,2.40
2022-11-21T11:09:33.212Z,2.40
2022-11-21T11:11:26.809Z,2.40
2022-11-21T11:13:49.920Z,2.40
2022-11-21T11:15:52.814Z,2.50
2022-11-21T11:17:39.967Z,2.50
2022-11-21T11:19:35.499Z,2.60
2022-11-21T11:21:30.313Z,2.60
2022-11-21T11:23:20.313Z,2.60
2022-11-21T11:25:09.890Z,2.60
2022-11-21T11:27:03.202Z,2.70
2022-11-21T11:28:50.683Z,2.70
2022-11-21T11:30:38.004Z,2.70
2022-11-21T11:32:26.002Z,2.70
2022-11-21T11:34:15.188Z,2.80
2022-11-21T11:36:25.146Z,2.80
2022-11-21T11:38:13.517Z,2.80
2022-11-21T11:40:25.241Z,2.80
2022-11-21T11:42:47.182Z,2.90
2022-11-21T11:45:10.209Z,2.90
2022-11-21T11:47:27.288Z,2.90
2022-11-21T11:50:11.576Z,2.90
2022-11-21T11:52:03.662Z,2.90
2022-11-21T11:54:00.919Z,2.90
2022-11-21T11:56:13.421Z,2.90
2022-11-21T11:58:03.194Z,2.90
2022-11-21T12:00:17.916Z,2.90
2022-11-21T12:02:16.587Z,2.90
2022-11-21T12:04:25.099Z,3.00
2022-11-21T12:06:52.810Z,3.00
2022-11-21T12:08:44.205Z,3.00
2022-11-21T12:10:59.161Z,3.00
2022-11-21T12:12:55.124Z,3.00
2022-11-21T12:15:12.477Z,2.90
2022-11-21T12:16:59.611Z,2.90
2022-11-21T12:19:02.975Z,2.90
2022-11-21T12:21:14.623Z,2.90
2022-11-21T12:23:04.524Z,2.90
2022-11-21T12:24:51.991Z,2.80
2022-11-21T12:26:42.240Z,2.80
2022-11-21T12:28:53.330Z,2.80
2022-11-21T12:30:55.949Z,2.80
2022-11-21T12:33:08.880Z,2.70
2022-11-21T12:35:17.797Z,2.70
2022-11-21T12:37:23.928Z,2.70
2022-11-21T12:39:19.829Z,2.70
2022-11-21T12:41:45.932Z,2.70
2022-11-21T12:43:43.692Z,2.60
2022-11-21T12:45:47.302Z,2.60
2022-11-21T12:48:21.873Z,2.60
2022-11-21T12:50:47.688Z,2.60
2022-11-21T12:53:13.042Z,2.70
2022-11-21T12:55:45.197Z,2.60
2022-11-21T12:57:45.996Z,2.60
2022-11-21T12:59:40.262Z,2.60
2022-11-21T13:01:43.452Z,2.60
2022-11-21T13:03:52.667Z,2.60
2022-11-21T13:05:42.819Z,2.60
2022-11-21T13:07:32.265Z,2.60
2022-11-21T13:09:22.068Z,2.60
2022-11-21T13:11:36.722Z,2.60
2022-11-21T13:13:34.036Z,2.60
2022-11-21T13:15:38.757Z,2.60
2022-11-21T13:17:25.983Z,2.60
2022-11-21T13:19:57.749Z,2.60
2022-11-21T13:21:48.115Z,2.60
2022-11-21T13:23:40.334Z,2.60
2022-11-21T13:25:33.892Z,2.60
2022-11-21T13:27:38.815Z,2.60
2022-11-21T13:29:26.532Z,2.60
2022-11-21T13:31:33.066Z,2.60
2022-11-21T13:33:35.393Z,2.60
2022-11-21T13:35:22.859Z,2.60
2022-11-21T13:37:30.497Z,2.60
2022-11-21T13:39:17.729Z,2.60
2022-11-21T13:41:26.215Z,2.60
2022-11-21T13:43:34.282Z,2.60
2022-11-21T13:45:48.559Z,2.60
2022-11-21T13:47:58.275Z,2.60
2022-11-21T13:49:57.613Z,2.60
2022-11-21T13:51:55.493Z,2.60
2022-11-21T13:54:18.165Z,2.60
2022-11-21T13:56:18.228Z,2.60
2022-11-21T13:58:43.414Z,2.70
2022-11-21T14:00:51.779Z,2.70
2022-11-21T14:02:57.926Z,2.70
2022-11-21T14:05:18.288Z,2.70
2022-11-21T14:07:35.487Z,2.70
2022-11-21T14:09:34.204Z,2.80
2022-11-21T14:11:32.154Z,2.70
2022-11-21T14:13:38.659Z,2.70
2022-11-21T14:15:49.368Z,2.70
2022-11-21T14:17:44.946Z,2.70
2022-11-21T14:19:34.750Z,2.70
2022-11-21T14:21:31.614Z,2.70
2022-11-21T14:23:22.165Z,2.70
2022-11-21T14:25:15.292Z,2.70
2022-11-21T14:27:07.122Z,2.70
2022-11-21T14:29:35.098Z,2.70
2022-11-21T14:31:22.484Z,2.70
2022-11-21T14:33:28.113Z,2.60
2022-11-21T14:35:23.746Z,2.70
2022-11-21T14:37:13.028Z,2.60
2022-11-21T14:39:36.830Z,2.60
2022-11-21T14:41:37.287Z,2.60
2022-11-21T14:43:33.915Z,2.60
2022-11-21T14:45:23.410Z,2.60
2022-11-21T14:47:25.215Z,2.60
2022-11-21T14:49:16.502Z,2.60
2022-11-21T14:51:10.246Z,2.60
2022-11-21T14:53:01.054Z,2.60
2022-11-21T14:55:28.570Z,2.60
2022-11-21T14:57:07.997Z,2.60
2022-11-21T14:58:58.031Z,2.60
2022-11-21T15:01:24.720Z,2.60
2022-11-21T15:03:23.713Z,2.60
2022-11-21T15:05:24.846Z,2.60
2022-11-21T15:07:31.865Z,2.60
2022-11-21T15:11:43.886Z,2.60
2022-11-21T15:13:58.505Z,2.60
2022-11-21T15:15:48.314Z,2.60
2022-11-21T15:17:35.736Z,2.60
2022-11-21T15:19:28.992Z,2.60
2022-11-21T15:21:17.036Z,2.60
2022-11-21T15:23:06.054Z,2.60
2022-11-21T15:25:18.110Z,2.60
2022-11-21T15:27:30.007Z,2.60
2022-11-21T15:29:21.791Z,2.60
2022-11-21T15:31:22.082Z,2.60
2022-11-21T15:33:13.711Z,2.60
2022-11-21T15:35:31.968Z,2.50
2022-11-21T15:37:20.671Z,2.60
2022-11-21T15:39:22.563Z,2.60
2022-11-21T15:41:09.781Z,2.50
2022-11-21T15:42:56.908Z,2.60
2022-11-21T15:45:04.499Z,2.60
2022-11-21T15:46:52.003Z,2.50
2022-11-21T15:48:39.127Z,2.50
2022-11-21T15:50:26.671Z,2.50
2022-11-21T15:52:13.912Z,2.50
2022-11-21T15:54:01.511Z,2.50
2022-11-21T15:55:49.535Z,2.50
2022-11-21T15:57:37.088Z,2.50
2022-11-21T15:59:24.164Z,2.50
2022-11-21T16:01:19.514Z,2.50
2022-11-21T16:03:06.714Z,2.50
2022-11-21T16:04:54.711Z,2.50
2022-11-21T16:06:42.096Z,2.50
2022-11-21T16:08:29.421Z,2.50
2022-11-21T16:10:22.615Z,2.50
2022-11-21T16:12:16.534Z,2.50
2022-11-21T16:14:06.193Z,2.50
2022-11-21T16:15:53.392Z,2.50
2022-11-21T16:17:41.769Z,2.50
2022-11-21T16:19:32.185Z,2.50
2022-11-21T16:21:19.717Z,2.50
2022-11-21T16:23:07.276Z,2.50
2022-11-21T16:24:54.407Z,2.50
2022-11-21T16:26:42.052Z,2.50
2022-11-21T16:28:29.379Z,2.50
2022-11-21T16:30:16.828Z,2.50
2022-11-21T16:32:04.067Z,2.50
2022-11-21T16:33:51.711Z,2.50
2022-11-21T16:35:39.349Z,2.50
2022-11-21T16:37:26.909Z,2.50
2022-11-21T16:39:18.266Z,2.50
2022-11-21T16:41:05.940Z,2.50
2022-11-21T16:43:06.722Z,2.50
2022-11-21T16:44:54.340Z,2.50
2022-11-21T16:46:48.267Z,2.50
2022-11-21T16:48:35.377Z,2.50
2022-11-21T16:50:22.801Z,2.50
2022-11-21T16:52:11.343Z,2.50
2022-11-21T16:54:01.736Z,2.50
2022-11-21T16:56:00.781Z,2.50
2022-11-21T16:57:47.856Z,2.50
2022-11-21T16:59:35.027Z,2.50
2022-11-21T17:01:25.093Z,2.50
2022-11-21T17:03:12.545Z,2.50
2022-11-21T17:04:59.621Z,2.50
2022-11-21T17:06:48.990Z,2.60
2022-11-21T17:08:36.896Z,2.60
2022-11-21T17:10:24.146Z,2.60
2022-11-21T17:12:11.558Z,2.60
2022-11-21T17:14:05.134Z,2.60
2022-11-21T17:15:52.367Z,2.60
2022-11-21T17:17:41.194Z,2.60
2022-11-21T17:19:28.424Z,2.60
2022-11-21T17:21:16.750Z,2.60
2022-11-21T17:23:04.100Z,2.60
2022-11-21T17:24:53.310Z,2.60
2022-11-21T17:26:40.423Z,2.60
2022-11-21T17:28:27.740Z,2.60
2022-11-21T17:30:15.971Z,2.60
2022-11-21T17:32:03.112Z,2.60
2022-11-21T17:33:51.902Z,2.60
2022-11-21T17:35:39.339Z,2.60
2022-11-21T17:37:26.308Z,2.60
2022-11-21T17:39:13.891Z,2.60
2022-11-21T17:41:02.139Z,2.60
2022-11-21T17:42:49.220Z,2.60
2022-11-21T17:44:36.559Z,2.60
2022-11-21T17:46:25.740Z,2.60
2022-11-21T17:48:12.943Z,2.60
2022-11-21T17:50:05.550Z,2.50
2022-11-21T17:51:56.661Z,2.50
2022-11-21T17:53:47.134Z,2.50
2022-11-21T17:55:34.607Z,2.50
2022-11-21T17:57:21.843Z,2.50
2022-11-21T17:59:13.285Z,2.50
2022-11-21T18:01:03.120Z,2.50
2022-11-21T18:02:50.770Z,2.50
2022-11-21T18:04:39.053Z,2.50
2022-11-21T18:06:37.944Z,2.50
2022-11-21T18:08:25.042Z,2.50
2022-11-21T18:10:40.840Z,2.50
2022-11-21T18:12:20.353Z,2.50
2022-11-21T18:14:08.903Z,2.40
2022-11-21T18:15:59.437Z,2.50
2022-11-21T18:17:47.048Z,2.40
2022-11-21T18:19:34.412Z,2.40
2022-11-21T18:21:24.484Z,2.50
2022-11-21T18:23:12.151Z,2.40
2022-11-21T18:24:59.367Z,2.40
2022-11-21T18:26:47.160Z,2.50
2022-11-21T18:28:34.538Z,2.50
2022-11-21T18:30:22.393Z,2.50
2022-11-21T18:32:09.446Z,2.50
2022-11-21T18:33:58.818Z,2.50
2022-11-21T18:35:47.048Z,2.50
2022-11-21T18:37:38.297Z,2.50
2022-11-21T18:39:26.955Z,2.50
2022-11-21T18:41:22.148Z,2.50
2022-11-21T18:43:09.239Z,2.50
2022-11-21T18:44:56.634Z,2.60
2022-11-21T18:46:43.750Z,2.60
2022-11-21T18:49:00.113Z,2.60
2022-11-21T18:50:38.516Z,2.60
2022-11-21T18:52:26.515Z,2.60
2022-11-21T18:54:13.661Z,2.60
2022-11-21T18:56:09.366Z,2.60
2022-11-21T18:57:56.703Z,2.60
2022-11-21T18:59:43.874Z,2.60
2022-11-21T19:01:33.027Z,2.60
2022-11-21T19:03:20.791Z,2.60
2022-11-21T19:05:08.128Z,2.60
2022-11-21T19:06:55.821Z,2.60
2022-11-21T19:08:46.845Z,2.60
2022-11-21T19:10:43.180Z,2.60
2022-11-21T19:12:36.280Z,2.60
2022-11-21T19:14:26.694Z,2.60
2022-11-21T19:16:16.719Z,2.60
2022-11-21T19:18:07.284Z,2.60
2022-11-21T19:19:54.316Z,2.60
2022-11-21T19:21:42.363Z,2.50
2022-11-21T19:23:30.558Z,2.40
2022-11-21T19:25:17.768Z,2.30
2022-11-21T19:27:05.362Z,2.30
2022-11-21T19:28:52.797Z,2.20
2022-11-21T19:30:40.820Z,2.20
2022-11-21T19:32:28.113Z,2.10
2022-11-21T19:34:16.800Z,2.10
2022-11-21T19:36:11.590Z,2.10
2022-11-21T19:37:59.425Z,2.10
2022-11-21T19:39:47.220Z,2.00
2022-11-21T19:41:34.696Z,2.00
2022-11-21T19:43:22.884Z,2.00
2022-11-21T19:45:11.521Z,2.00
2022-11-21T19:46:58.912Z,2.00
2022-11-21T19:48:50.411Z,2.00
2022-11-21T19:50:42.030Z,2.00
2022-11-21T19:52:33.159Z,2.00
2022-11-21T19:54:23.679Z,1.90
2022-11-21T19:56:22.549Z,1.90
2022-11-21T19:58:09.899Z,1.90
2022-11-21T19:59:57.349Z,1.90
2022-11-21T20:01:49.472Z,1.90
2022-11-21T20:03:41.744Z,1.90
2022-11-21T20:05:29.426Z,1.90
2022-11-21T20:07:17.008Z,1.90
2022-11-21T20:09:06.516Z,1.80
2022-11-21T20:10:53.640Z,1.70
2022-11-21T20:12:41.987Z,1.60
2022-11-21T20:14:29.632Z,1.60
2022-11-21T20:16:19.832Z,1.60
2022-11-21T20:18:08.354Z,1.60
2022-11-21T20:19:58.007Z,1.60
2022-11-21T20:21:46.316Z,1.60
2022-11-21T20:23:33.645Z,1.60
2022-11-21T20:25:20.810Z,1.60
2022-11-21T20:27:08.755Z,1.60
2022-11-21T20:28:56.236Z,1.60
2022-11-21T20:30:43.399Z,1.50
2022-11-21T20:32:32.396Z,1.50
2022-11-21T20:34:20.889Z,1.50
2022-11-21T20:36:16.345Z,1.50
2022-11-21T20:38:03.825Z,1.50
2022-11-21T20:39:51.291Z,1.50
2022-11-21T20:41:40.052Z,1.50
2022-11-21T20:43:52.660Z,1.50
2022-11-21T20:46:08.015Z,1.40
2022-11-21T20:47:42.748Z,1.50
2022-11-21T20:49:31.174Z,1.40
2022-11-21T20:55:36.533Z,1.30
2022-11-21T20:57:24.152Z,1.40
2022-11-21T20:59:12.273Z,1.30
2022-11-21T21:01:00.118Z,1.30
2022-11-21T21:02:48.510Z,1.30
2022-11-21T21:04:36.612Z,1.30
2022-11-21T21:06:24.612Z,1.20
2022-11-21T21:08:12.213Z,1.20
2022-11-21T21:09:59.607Z,1.20
2022-11-21T21:11:53.899Z,1.20
2022-11-21T21:13:43.932Z,1.20
2022-11-21T21:15:33.234Z,1.20
2022-11-21T21:17:20.207Z,1.20
2022-11-21T21:19:09.575Z,1.20
2022-11-21T21:21:16.625Z,1.10
2022-11-21T21:23:04.293Z,1.10
2022-11-21T21:24:51.855Z,1.10
2022-11-21T21:26:43.522Z,1.10
2022-11-21T21:28:30.887Z,1.10
2022-11-21T21:30:19.429Z,1.10
2022-11-21T21:32:06.796Z,1.10
2022-11-21T21:33:53.904Z,1.10
2022-11-21T21:35:41.152Z,1.10
2022-11-21T21:37:28.343Z,1.10
2022-11-21T21:39:15.865Z,1.10
2022-11-21T21:41:04.305Z,1.10
2022-11-21T21:42:52.972Z,1.10
2022-11-21T21:44:40.240Z,1.10
2022-11-21T21:46:28.460Z,1.10
2022-11-21T21:48:15.783Z,1.10
2022-11-21T21:50:03.166Z,1.10
2022-11-21T21:51:50.675Z,1.10
2022-11-21T21:53:38.409Z,1.10
2022-11-21T21:55:25.506Z,1.00
2022-11-21T21:57:12.892Z,1.00
2022-11-21T21:59:00.042Z,1.00
2022-11-21T22:00:47.097Z,1.00
2022-11-21T22:02:34.501Z,1.00
2022-11-21T22:04:21.594Z,0.90
2022-11-21T22:06:11.136Z,0.90
2022-11-21T22:07:58.776Z,1.00
2022-11-21T22:09:46.027Z,1.00
2022-11-21T22:11:37.259Z,1.00
2022-11-21T22:13:24.587Z,1.00
2022-11-21T22:15:11.601Z,1.10
2022-11-21T22:16:58.716Z,1.00
2022-11-21T22:18:46.322Z,1.00
2022-11-21T22:20:33.815Z,1.00
2022-11-21T22:22:20.845Z,1.00
2022-11-21T22:24:31.310Z,1.00
2022-11-21T22:26:18.396Z,1.00
2022-11-21T22:28:05.440Z,1.00
2022-11-21T22:29:52.708Z,1.00
2022-11-21T22:31:40.001Z,0.90
2022-11-21T22:33:27.540Z,0.90
2022-11-21T22:35:14.780Z,0.90
2022-11-21T22:37:02.080Z,0.90
2022-11-21T22:38:52.077Z,0.90
2022-11-21T22:40:39.304Z,0.90
2022-11-21T22:42:26.744Z,0.90
2022-11-21T22:44:13.785Z,1.00
2022-11-21T22:46:05.412Z,0.90
2022-11-21T22:47:52.607Z,0.90
2022-11-21T22:49:39.681Z,0.90
2022-11-21T22:51:29.528Z,0.90
2022-11-21T22:53:16.991Z,0.90
2022-11-21T22:55:04.169Z,0.90
2022-11-21T22:56:51.596Z,1.00
2022-11-21T22:58:41.026Z,1.00
2022-11-21T23:00:28.277Z,1.00
2022-11-21T23:02:16.145Z,1.00
2022-11-21T23:04:03.594Z,1.00
2022-11-21T23:05:58.732Z,1.00
2022-11-21T23:07:46.083Z,1.00
2022-11-21T23:09:33.269Z,1.00
2022-11-21T23:11:27.510Z,1.00
2022-11-21T23:13:14.782Z,1.00
2022-11-21T23:15:02.197Z,1.00
2022-11-21T23:16:49.208Z,1.00
2022-11-21T23:18:37.365Z,1.00
2022-11-21T23:20:25.491Z,1.00
2022-11-21T23:22:12.672Z,1.00
2022-11-21T23:23:59.951Z,1.00
2022-11-21T23:25:48.499Z,1.00
2022-11-21T23:27:35.494Z,1.00
2022-11-21T23:29:22.909Z,1.00
2022-11-21T23:31:10.694Z,1.00
2022-11-21T23:32:57.687Z,1.00
2022-11-21T23:34:44.922Z,1.00
2022-11-21T23:36:32.766Z,1.00
2022-11-21T23:38:20.156Z,1.00
2022-11-21T23:40:08.124Z,1.00
2022-11-21T23:41:55.134Z,1.00
2022-11-21T23:43:42.127Z,1.00
2022-11-21T23:45:29.425Z,1.00
2022-11-21T23:47:16.506Z,1.00
2022-11-21T23:49:03.546Z,1.00
2022-11-21T23:50:51.336Z,1.00
2022-11-21T23:52:38.446Z,0.90
2022-11-21T23:54:25.520Z,0.90
2022-11-21T23:56:12.799Z,0.90
2022-11-21T23:57:59.887Z,0.80
2022-11-21T23:59:46.844Z,0.90
